Nearby METAR Reports

 

CYUL - Montreal/Dorval, Quebec, Canada
Distance from station: ENE 6km
Updated: 05/16/2021 03:00 EDT
Few Clouds
Few Clouds
 Wind from W
Wind: W 7 km/h
Temperature: 11°C
Dew Point: 5°C
Humidity: 67%
Barometer: 1021 hPa
Clouds: Few Clouds
Visibility: 24 km
Cloud details: Few Clouds 7620 m
2021/05/16 07:00 CYUL 160700Z 26004KT 15SM FEW250 11/05 A3015 RMK CI1 CI TR SLP211
CWVQ - Ste Anne De Bell, Quebec, Canada
Distance from station: WSW 10km
Updated: 05/16/2021 03:00 EDT

 Wind from WSW
Wind: WSW 13 km/h
Temperature: 12°C
Dew Point: 3°C
Humidity: 54%
2021/05/16 07:00 CWVQ 160700Z AUTO 24007KT 12/03 RMK AO1 SLP213 T01240031 53003
 
CWTA - Mc Tavish (aut), Quebec, Canada
Distance from station: ENE 18km
Updated: 05/16/2021 03:00 EDT

 Wind from W
Wind: W 2 km/h
Temperature: 14°C
Dew Point: 4°C
Humidity: 51%
2021/05/16 07:00 CWTA 160700Z AUTO 26001KT 14/04 RMK AO1 SLP208 T01390035 50002
CYMX - Montreal/Mirabel, Quebec, Canada
Distance from station: NW 29km
Updated: 05/16/2021 03:00 EDT
Partly cloudy
Partly cloudy
 Wind from WSW
Wind: WSW 9 km/h
Temperature: 9°C
Wind Chill: 7°C
Dew Point: 4°C
Humidity: 71%
Barometer: 1021.3 hPa
Clouds: Partly cloudy
Visibility: 40 km
Cloud details: Partly cloudy 7620 m
2021/05/16 07:00 CYMX 160700Z 25005KT 230V350 25SM SCT250 09/04 A3016 RMK CI3 SLP216
 
CYHU - Saint Hubert Arp, Quebec, Canada
Distance from station: ENE 31km
Updated: 05/16/2021 03:00 EDT
Mostly cloudy
Mostly cloudy
 Wind from E
Wind: E 4 km/h
Temperature: 9°C
Dew Point: 5°C
Humidity: 76%
Barometer: 1020.3 hPa
Clouds: Mostly cloudy
Visibility: 14 km
Cloud details: Mostly cloudy 3353 m
2021/05/16 07:00 CYHU 160700Z AUTO 09002KT 9SM BKN110 09/05 A3013 RMK SLP206
CWIT - St Clothilde (a, Quebec, Canada
Distance from station: SSE 33km
Updated: 05/16/2021 03:00 EDT

 Wind from W
Wind: W 7 km/h
Temperature: 12°C
Dew Point: 2°C
Humidity: 51%
2021/05/16 07:00 CWIT 160700Z AUTO 27004KT 12/02 RMK AO1 SLP209 T01200021 51003
 
CWIZ - L'acadie, Quebec, Canada
Distance from station: ESE 41km
Updated: 05/16/2021 03:00 EDT

 Wind from WSW
Wind: WSW 4 km/h
Temperature: 8°C
Dew Point: 2°C
Humidity: 66%
2021/05/16 07:00 CWIZ 160700Z AUTO 24002KT 08/02 RMK AO1 T00800024
CWHM - Varennes, Quebec, Canada
Distance from station: NE 45km
Updated: 10/25/2016 10:00 EDT
NOT Current

 Wind from W
Wind: W 19 km/h, Gust: 28 km/h
Temperature: 4°C
Wind Chill: 0°C
Dew Point: -2°C
Humidity: 65%
2016/10/25 14:00 CWHM 251400Z AUTO 28010G15KT 04/M02 RMK AO1 PK WND 28018/1302 T00391017
 
CWEW - L'assomption, Quebec, Canada
Distance from station: NE 50km
Updated: 05/16/2021 03:00 EDT

 Wind from NW
Wind: NW 4 km/h
Temperature: 9°C
Dew Point: 5°C
Humidity: 76%
2021/05/16 07:00 CWEW 160700Z AUTO 32002KT 09/05 RMK AO1 SLP217 T00930046 51005
CWBZ - St Anicet, Quebec, Canada
Distance from station: SW 52km
Updated: 05/16/2021 03:00 EDT

 Wind from N
Wind: N 6 km/h
Temperature: 11°C
Dew Point: 2°C
Humidity: 54%
2021/05/16 07:00 CWBZ 160700Z AUTO 36003KT 11/02 RMK AO1 SLP210 T01050017 53004
 
KFSO - Highgate, Vermont, USA
Distance from station: SE 79km
Updated: 05/16/2021 03:55 EDT
Clear
Clear
 Wind from SE
Wind: SE 7 km/h
Temperature: 8°C
Wind Chill: 7°C
Dew Point: 4°C
Humidity: 76%
Barometer: 1022 hPa
Clouds: Clear
Visibility: 16 km
2021/05/16 07:55 KFSO 160755Z AUTO 14004KT 10SM CLR 08/04 A3018 RMK AO2 T00840037
CMGB - Granby, Quebec, Canada
Distance from station: E 81km
Updated: 05/16/2021 03:00 EDT

 Wind from SSW
Wind: SSW 4 km/h
Temperature: 10°C
Dew Point: 4°C
Humidity: 67%
2021/05/16 07:00 CMGB 160700Z AUTO 20002KT 10/04 RMK AO1 SLP209 T01000035 51001
 
CWJT - St Jovite (autob, Quebec, Canada
Distance from station: NW 88km
Updated: 05/16/2021 03:00 EDT

 Wind from calm
Wind: Calm
Temperature: 7°C
Dew Point: 5°C
Humidity: 87%
2021/05/16 07:00 CWJT 160700Z AUTO 00000KT 07/05 RMK AO1 SLP218 T00740050 53005
CWFQ - Frelighsburg, Quebec, Canada
Distance from station: ESE 90km
Updated: 05/16/2021 03:00 EDT

 Wind from S
Wind: S 7 km/h
Temperature: 12°C
Dew Point: 1°C
Humidity: 47%
2021/05/16 07:00 CWFQ 160700Z AUTO 17004KT 12/01 RMK AO1 SLP212 T01150005 50001
 
KPBG - Plattsburgh Afb, New York, USA
Distance from station: SSE 93km
Updated: 05/16/2021 03:53 EDT
Clear
Clear
 Wind from calm
Wind: Calm
Temperature: 7°C
Dew Point: 3°C
Humidity: 76%
Barometer: 1021.7 hPa
Clouds: Clear
Visibility: 16 km
2021/05/16 07:53 KPBG 160753Z AUTO 00000KT 10SM CLR 07/03 A3017 RMK AO2 SLP217 T00720028
KMSS - Massena, New York, USA
Distance from station: SW 100km
Updated: 05/16/2021 03:53 EDT
Clear
Clear
 Wind from SW
Wind: SW 9 km/h
Temperature: 9°C
Wind Chill: 7°C
Dew Point: 1°C
Humidity: 58%
Barometer: 1022.7 hPa
Clouds: Clear
Visibility: 16 km
2021/05/16 07:53 KMSS 160753Z AUTO 22005KT 10SM CLR 09/01 A3020 RMK AO2 SLP229 T00940006
 
CWBS - Lac St Pierre (a, Quebec, Canada
Distance from station: NE 106km
Updated: 05/16/2021 03:00 EDT

 Wind from N
Wind: N 9 km/h
Temperature: 13°C
Dew Point: 6°C
Humidity: 63%
2021/05/16 07:00 CWBS 160700Z AUTO 35005KT 13/06 RMK AO1 T01270064
KBTV - Burlington, Vermont, USA
Distance from station: SSE 121km
Updated: 05/16/2021 03:54 EDT
Clear
Clear
 Wind from calm
Wind: Calm
Temperature: 10°C
Dew Point: 5°C
Humidity: 71%
Barometer: 1022 hPa
Clouds: Clear
Visibility: 16 km
2021/05/16 07:54 KBTV 160754Z AUTO 00000KT 10SM CLR 10/05 A3018 RMK AO2 SLPNO T01000050
 
KSLK - Saranac Lake, New York, USA
Distance from station: SSW 121km
Updated: 05/16/2021 03:51 EDT
Clear
Clear
 Wind from calm
Wind: Calm
Temperature: -2°C
Dew Point: -3°C
Humidity: 93%
Barometer: 1023 hPa
Clouds: Clear
Visibility: 16 km
2021/05/16 07:51 KSLK 160751Z AUTO 00000KT 10SM CLR M02/M03 A3021 RMK AO2 SLP236 T10171033
CWNQ - Nicolet (autob), Quebec, Canada
Distance from station: NE 123km
Updated: 05/16/2021 03:00 EDT

 Wind from NE
Wind: NE 4 km/h
Temperature: 9°C
Dew Point: 8°C
Humidity: 94%
2021/05/16 07:00 CWNQ 160700Z AUTO 04002KT 09/08 RMK AO1 SLP212 T00940078 53007
 
KMWN - Mount Washington, New Hampshire, USA
Distance from station: SE 237km
Updated: 05/16/2021 02:59 EDT
Overcast
Overcast
 Wind from NNW
Wind: NNW 26 km/h
Temperature: 3°C
Wind Chill: -2°C
Dew Point: -4°C
Humidity: 60%
Clouds: Overcast
Visibility: 128 km
Cloud details: Mostly cloudy 305 m
Mostly cloudy 914 m
Mostly cloudy 2134 m
Overcast 3048 m
2021/05/16 06:59 KMWN 160659Z 33014KT 80SM BKN010 BKN030 BKN070 OVC100 03/M04 RMK VIRGA DSNT W BINOVC
CYVR - Vancouver Intl A, British Columbia, Canada
Distance from station: NW 3676km
Updated: 05/16/2021 03:00 EDT
Partly cloudy
Partly cloudy
 Wind from W
Wind: W 11 km/h
Temperature: 13°C
Dew Point: 12°C
Humidity: 94%
Barometer: 1015.6 hPa
Clouds: Partly cloudy
Visibility: 32 km
Cloud details: Partly cloudy 7010 m
2021/05/16 07:00 CYVR 160700Z 28006KT 20SM SCT230 13/12 A2999 RMK CI3 SLP157